Ana Sayfa
METAR-TAF:

METAR-TAF

Havaalanları :

Banjarmasin, Endonezya

Enlem: 03-26-32S, Boylam: 114-45-45E, yükseklik: 20 m

METAR: eksik

Saat: 05:39 (22:39 UTC)

Tahmin

Rapor saat 11:00 UTC de 11 saat ve 39 dakika önce yapıldı.
Ayın 23'si saat 12 UTC'den ayın 24'si saat 12 UTC'ye kadar geçerli Tahmin
Rüzgar güney/güneydoğudan 6 kt
Görüş mesafesi: 9000 m
2000 ft yükseklikte az bulutlu

TAF: WAOO 231100Z 2312/2412 15006KT 9000 FEW020

4.000'den fazla havaalanı için hava durumu gözlemleri ve tahminleri (METAR ve TAF raporları).

Kullanılabilir istasyonlar harita üzerinde sarı ve kırmızı noktalarla gösterilir.

İstasyonun adını görmek için fareyi noktanın üzerinde gezdirin.

Sonrasında hava gözlem ve tahminlerini görmek için tıklayın.

Haritayı değiştirmek için: yaklaştırmak için siyah artı işaretli yeşil düğmeye ve uzaklaştırmak için de eksi işaretli düğmeye hızla tıklayın; bitişik haritalar için yeşil okları kullanın.


METAR-TAF: